sensor_id;sensor_type;location;lat;lon;timestamp;temperature;humidity
33994;DHT22;20673;48.980;8.138;2023-06-01T00:00:36;12.30;99.90
33994;DHT22;20673;48.980;8.138;2023-06-01T00:03:04;12.30;99.90
33994;DHT22;20673;48.980;8.138;2023-06-01T00:05:30;12.10;99.90
33994;DHT22;20673;48.980;8.138;2023-06-01T00:07:56;12.00;99.90
33994;DHT22;20673;48.980;8.138;2023-06-01T00:10:22;11.90;99.90
33994;DHT22;20673;48.980;8.138;2023-06-01T00:12:48;12.00;99.90
33994;DHT22;20673;48.980;8.138;2023-06-01T00:15:14;12.00;99.90
33994;DHT22;20673;48.980;8.138;2023-06-01T00:17:40;12.10;99.90
33994;DHT22;20673;48.980;8.138;2023-06-01T00:20:07;12.00;99.90
33994;DHT22;20673;48.980;8.138;2023-06-01T00:22:34;11.90;99.90
33994;DHT22;20673;48.980;8.138;2023-06-01T00:25:03;11.90;99.90
33994;DHT22;20673;48.980;8.138;2023-06-01T00:27:31;11.80;99.90
33994;DHT22;20673;48.980;8.138;2023-06-01T00:29:57;11.90;99.90
33994;DHT22;20673;48.980;8.138;2023-06-01T00:32:23;11.80;99.90
33994;DHT22;20673;48.980;8.138;2023-06-01T00:34:49;11.80;99.90
33994;DHT22;20673;48.980;8.138;2023-06-01T00:37:15;11.80;99.90
33994;DHT22;20673;48.980;8.138;2023-06-01T00:39:42;11.70;99.90
33994;DHT22;20673;48.980;8.138;2023-06-01T00:42:08;11.70;99.90
33994;DHT22;20673;48.980;8.138;2023-06-01T00:44:34;11.70;99.90
33994;DHT22;20673;48.980;8.138;2023-06-01T00:47:00;11.80;99.90
33994;DHT22;20673;48.980;8.138;2023-06-01T00:49:27;11.80;99.90
33994;DHT22;20673;48.980;8.138;2023-06-01T00:51:53;11.70;99.90
33994;DHT22;20673;48.980;8.138;2023-06-01T00:54:21;11.80;99.90
33994;DHT22;20673;48.980;8.138;2023-06-01T00:56:47;11.70;99.90
33994;DHT22;20673;48.980;8.138;2023-06-01T00:59:13;11.60;99.90
33994;DHT22;20673;48.980;8.138;2023-06-01T01:01:39;11.50;99.90
33994;DHT22;20673;48.980;8.138;2023-06-01T01:04:07;11.60;99.90
33994;DHT22;20673;48.980;8.138;2023-06-01T01:06:44;11.60;99.90
33994;DHT22;20673;48.980;8.138;2023-06-01T01:11:58;11.40;99.90
33994;DHT22;20673;48.980;8.138;2023-06-01T01:14:39;11.30;99.90
33994;DHT22;20673;48.980;8.138;2023-06-01T01:22:40;11.30;99.90
33994;DHT22;20673;48.980;8.138;2023-06-01T01:31:03;11.30;99.90
33994;DHT22;20673;48.980;8.138;2023-06-01T01:33:32;11.40;99.90
33994;DHT22;20673;48.980;8.138;2023-06-01T01:35:59;11.50;99.90
33994;DHT22;20673;48.980;8.138;2023-06-01T01:38:27;11.50;99.90
33994;DHT22;20673;48.980;8.138;2023-06-01T01:40:53;11.60;99.90
33994;DHT22;20673;48.980;8.138;2023-06-01T01:43:20;11.70;99.90
33994;DHT22;20673;48.980;8.138;2023-06-01T01:45:53;11.60;99.90
33994;DHT22;20673;48.980;8.138;2023-06-01T01:48:47;11.60;99.90
33994;DHT22;20673;48.980;8.138;2023-06-01T01:51:16;11.50;99.90
33994;DHT22;20673;48.980;8.138;2023-06-01T01:53:50;11.40;99.90
33994;DHT22;20673;48.980;8.138;2023-06-01T01:56:18;11.30;99.90
33994;DHT22;20673;48.980;8.138;2023-06-01T01:58:47;11.30;99.90
33994;DHT22;20673;48.980;8.138;2023-06-01T02:01:14;11.40;99.90
33994;DHT22;20673;48.980;8.138;2023-06-01T02:03:41;11.40;99.90
33994;DHT22;20673;48.980;8.138;2023-06-01T02:06:08;11.40;99.90
33994;DHT22;20673;48.980;8.138;2023-06-01T02:08:34;11.40;99.90
33994;DHT22;20673;48.980;8.138;2023-06-01T02:11:00;11.40;99.90
33994;DHT22;20673;48.980;8.138;2023-06-01T02:13:26;11.40;99.90
33994;DHT22;20673;48.980;8.138;2023-06-01T02:15:52;11.50;99.90
33994;DHT22;20673;48.980;8.138;2023-06-01T02:18:18;11.50;99.90
33994;DHT22;20673;48.980;8.138;2023-06-01T02:20:45;11.60;99.90
33994;DHT22;20673;48.980;8.138;2023-06-01T02:23:11;11.70;99.90
33994;DHT22;20673;48.980;8.138;2023-06-01T02:25:37;11.80;99.90
33994;DHT22;20673;48.980;8.138;2023-06-01T02:28:04;11.90;99.90
33994;DHT22;20673;48.980;8.138;2023-06-01T02:30:32;12.00;99.90
33994;DHT22;20673;48.980;8.138;2023-06-01T02:32:58;12.10;99.90
33994;DHT22;20673;48.980;8.138;2023-06-01T02:35:24;12.20;99.90
33994;DHT22;20673;48.980;8.138;2023-06-01T02:37:51;12.30;99.90
33994;DHT22;20673;48.980;8.138;2023-06-01T02:40:17;12.30;99.90
33994;DHT22;20673;48.980;8.138;2023-06-01T02:42:43;12.30;99.90
33994;DHT22;20673;48.980;8.138;2023-06-01T02:45:09;12.20;99.90
33994;DHT22;20673;48.980;8.138;2023-06-01T02:47:35;12.10;99.90
33994;DHT22;20673;48.980;8.138;2023-06-01T02:50:01;12.10;99.90
33994;DHT22;20673;48.980;8.138;2023-06-01T02:52:28;12.00;99.90
33994;DHT22;20673;48.980;8.138;2023-06-01T02:54:54;12.00;99.90
33994;DHT22;20673;48.980;8.138;2023-06-01T02:57:20;11.90;99.90
33994;DHT22;20673;48.980;8.138;2023-06-01T02:59:46;11.90;99.90
33994;DHT22;20673;48.980;8.138;2023-06-01T03:02:12;11.80;99.90
33994;DHT22;20673;48.980;8.138;2023-06-01T03:04:38;11.80;99.90
33994;DHT22;20673;48.980;8.138;2023-06-01T03:07:04;11.70;99.90
33994;DHT22;20673;48.980;8.138;2023-06-01T03:09:30;11.60;99.90
33994;DHT22;20673;48.980;8.138;2023-06-01T03:11:57;11.60;99.90
33994;DHT22;20673;48.980;8.138;2023-06-01T03:14:23;11.60;99.90
33994;DHT22;20673;48.980;8.138;2023-06-01T03:16:49;11.60;99.90
33994;DHT22;20673;48.980;8.138;2023-06-01T03:19:15;11.50;99.90
33994;DHT22;20673;48.980;8.138;2023-06-01T03:21:41;11.40;99.90
33994;DHT22;20673;48.980;8.138;2023-06-01T03:24:07;11.50;99.90
33994;DHT22;20673;48.980;8.138;2023-06-01T03:26:33;11.50;99.90
33994;DHT22;20673;48.980;8.138;2023-06-01T03:28:59;11.50;99.90
33994;DHT22;20673;48.980;8.138;2023-06-01T03:31:25;11.50;99.90
33994;DHT22;20673;48.980;8.138;2023-06-01T03:33:52;11.50;99.90
33994;DHT22;20673;48.980;8.138;2023-06-01T03:36:18;11.40;99.90
33994;DHT22;20673;48.980;8.138;2023-06-01T03:38:44;11.40;99.90
33994;DHT22;20673;48.980;8.138;2023-06-01T03:41:10;11.40;99.90
33994;DHT22;20673;48.980;8.138;2023-06-01T03:43:36;11.30;99.90
33994;DHT22;20673;48.980;8.138;2023-06-01T03:46:02;11.30;99.90
33994;DHT22;20673;48.980;8.138;2023-06-01T03:48:28;11.30;99.90
33994;DHT22;20673;48.980;8.138;2023-06-01T03:50:55;11.30;99.90
33994;DHT22;20673;48.980;8.138;2023-06-01T03:53:21;11.20;99.90
33994;DHT22;20673;48.980;8.138;2023-06-01T03:55:47;11.20;99.90
33994;DHT22;20673;48.980;8.138;2023-06-01T03:58:14;11.10;99.90
33994;DHT22;20673;48.980;8.138;2023-06-01T04:00:40;11.20;99.90
33994;DHT22;20673;48.980;8.138;2023-06-01T04:03:07;11.20;99.90
33994;DHT22;20673;48.980;8.138;2023-06-01T04:05:33;11.30;99.90
33994;DHT22;20673;48.980;8.138;2023-06-01T04:08:01;11.20;99.90
33994;DHT22;20673;48.980;8.138;2023-06-01T04:10:27;11.20;99.90
33994;DHT22;20673;48.980;8.138;2023-06-01T04:12:53;11.30;99.90
33994;DHT22;20673;48.980;8.138;2023-06-01T04:15:20;11.30;99.90
33994;DHT22;20673;48.980;8.138;2023-06-01T04:17:47;11.30;99.90
33994;DHT22;20673;48.980;8.138;2023-06-01T04:20:15;11.30;99.90
33994;DHT22;20673;48.980;8.138;2023-06-01T04:22:43;11.40;99.90
33994;DHT22;20673;48.980;8.138;2023-06-01T04:25:11;11.40;99.90
33994;DHT22;20673;48.980;8.138;2023-06-01T04:27:43;11.40;99.90
33994;DHT22;20673;48.980;8.138;2023-06-01T04:30:14;11.50;99.90
33994;DHT22;20673;48.980;8.138;2023-06-01T04:32:42;11.60;99.90
33994;DHT22;20673;48.980;8.138;2023-06-01T04:35:10;11.60;99.90
33994;DHT22;20673;48.980;8.138;2023-06-01T04:37:37;11.80;99.90
33994;DHT22;20673;48.980;8.138;2023-06-01T04:40:05;11.90;99.90
33994;DHT22;20673;48.980;8.138;2023-06-01T04:42:35;11.90;99.90
33994;DHT22;20673;48.980;8.138;2023-06-01T04:45:05;12.00;99.90
33994;DHT22;20673;48.980;8.138;2023-06-01T04:47:34;12.10;99.90
33994;DHT22;20673;48.980;8.138;2023-06-01T04:50:08;12.20;99.90
33994;DHT22;20673;48.980;8.138;2023-06-01T04:52:38;12.30;99.90
33994;DHT22;20673;48.980;8.138;2023-06-01T04:55:06;12.40;99.90
33994;DHT22;20673;48.980;8.138;2023-06-01T04:57:36;12.50;99.90
33994;DHT22;20673;48.980;8.138;2023-06-01T05:00:05;12.60;99.90
33994;DHT22;20673;48.980;8.138;2023-06-01T05:02:34;12.80;99.90
33994;DHT22;20673;48.980;8.138;2023-06-01T05:05:00;12.90;99.90
33994;DHT22;20673;48.980;8.138;2023-06-01T05:07:26;13.00;99.90
33994;DHT22;20673;48.980;8.138;2023-06-01T05:09:52;13.20;99.90
33994;DHT22;20673;48.980;8.138;2023-06-01T05:12:18;13.40;99.90
33994;DHT22;20673;48.980;8.138;2023-06-01T05:14:44;13.60;99.90
33994;DHT22;20673;48.980;8.138;2023-06-01T05:17:11;13.80;99.90
33994;DHT22;20673;48.980;8.138;2023-06-01T05:19:37;14.10;99.90
33994;DHT22;20673;48.980;8.138;2023-06-01T05:22:03;14.30;99.90
33994;DHT22;20673;48.980;8.138;2023-06-01T05:24:29;14.60;99.90
33994;DHT22;20673;48.980;8.138;2023-06-01T05:26:55;14.80;99.90
33994;DHT22;20673;48.980;8.138;2023-06-01T05:29:21;15.00;99.90
33994;DHT22;20673;48.980;8.138;2023-06-01T05:31:49;15.10;99.90
33994;DHT22;20673;48.980;8.138;2023-06-01T05:34:16;15.30;99.90
33994;DHT22;20673;48.980;8.138;2023-06-01T05:36:42;15.50;99.90
33994;DHT22;20673;48.980;8.138;2023-06-01T05:39:08;15.70;99.90
33994;DHT22;20673;48.980;8.138;2023-06-01T05:41:34;15.80;99.90
33994;DHT22;20673;48.980;8.138;2023-06-01T05:44:00;15.90;99.90
33994;DHT22;20673;48.980;8.138;2023-06-01T05:46:26;16.10;99.90
33994;DHT22;20673;48.980;8.138;2023-06-01T05:48:52;16.20;99.90
33994;DHT22;20673;48.980;8.138;2023-06-01T05:51:18;16.30;99.90
33994;DHT22;20673;48.980;8.138;2023-06-01T05:53:44;16.40;99.90
33994;DHT22;20673;48.980;8.138;2023-06-01T05:56:10;16.50;99.90
33994;DHT22;20673;48.980;8.138;2023-06-01T05:58:36;16.60;99.90
33994;DHT22;20673;48.980;8.138;2023-06-01T06:01:02;16.70;99.90
33994;DHT22;20673;48.980;8.138;2023-06-01T06:03:29;16.80;99.90
33994;DHT22;20673;48.980;8.138;2023-06-01T06:05:55;17.00;99.90
33994;DHT22;20673;48.980;8.138;2023-06-01T06:08:21;17.10;99.90
33994;DHT22;20673;48.980;8.138;2023-06-01T06:10:47;17.30;99.90
33994;DHT22;20673;48.980;8.138;2023-06-01T06:13:14;17.40;99.90
33994;DHT22;20673;48.980;8.138;2023-06-01T06:15:40;17.60;99.90
33994;DHT22;20673;48.980;8.138;2023-06-01T06:18:06;17.70;99.90
33994;DHT22;20673;48.980;8.138;2023-06-01T06:20:32;17.80;99.90
33994;DHT22;20673;48.980;8.138;2023-06-01T06:22:58;17.80;99.90
33994;DHT22;20673;48.980;8.138;2023-06-01T06:25:24;17.90;99.90
33994;DHT22;20673;48.980;8.138;2023-06-01T06:27:50;18.10;99.90
33994;DHT22;20673;48.980;8.138;2023-06-01T06:30:16;18.20;99.90
33994;DHT22;20673;48.980;8.138;2023-06-01T06:32:43;18.30;99.90
33994;DHT22;20673;48.980;8.138;2023-06-01T06:35:09;18.50;99.90
33994;DHT22;20673;48.980;8.138;2023-06-01T06:37:37;18.60;99.90
33994;DHT22;20673;48.980;8.138;2023-06-01T06:40:04;18.70;99.90
33994;DHT22;20673;48.980;8.138;2023-06-01T06:42:32;18.80;99.90
33994;DHT22;20673;48.980;8.138;2023-06-01T06:44:58;18.90;99.90
33994;DHT22;20673;48.980;8.138;2023-06-01T06:47:24;19.10;99.90
33994;DHT22;20673;48.980;8.138;2023-06-01T06:49:50;19.10;99.90
33994;DHT22;20673;48.980;8.138;2023-06-01T06:52:17;19.30;99.90
33994;DHT22;20673;48.980;8.138;2023-06-01T06:54:43;19.40;99.90
33994;DHT22;20673;48.980;8.138;2023-06-01T06:57:09;19.50;99.90
33994;DHT22;20673;48.980;8.138;2023-06-01T06:59:36;19.70;99.90
33994;DHT22;20673;48.980;8.138;2023-06-01T07:02:02;19.90;99.90
33994;DHT22;20673;48.980;8.138;2023-06-01T07:04:29;20.00;99.90
33994;DHT22;20673;48.980;8.138;2023-06-01T07:06:56;20.10;99.90
33994;DHT22;20673;48.980;8.138;2023-06-01T07:09:22;20.10;99.90
33994;DHT22;20673;48.980;8.138;2023-06-01T07:11:48;20.20;99.90
33994;DHT22;20673;48.980;8.138;2023-06-01T07:14:15;20.30;99.90
33994;DHT22;20673;48.980;8.138;2023-06-01T07:16:41;20.60;99.90
33994;DHT22;20673;48.980;8.138;2023-06-01T07:19:08;20.60;99.90
33994;DHT22;20673;48.980;8.138;2023-06-01T07:21:34;20.70;99.90
33994;DHT22;20673;48.980;8.138;2023-06-01T07:24:02;20.80;99.90
33994;DHT22;20673;48.980;8.138;2023-06-01T07:26:29;20.80;99.90
33994;DHT22;20673;48.980;8.138;2023-06-01T07:28:56;20.90;99.90
33994;DHT22;20673;48.980;8.138;2023-06-01T07:31:23;20.90;99.90
33994;DHT22;20673;48.980;8.138;2023-06-01T07:33:50;21.00;99.90
33994;DHT22;20673;48.980;8.138;2023-06-01T07:36:21;21.10;99.90
33994;DHT22;20673;48.980;8.138;2023-06-01T07:38:49;21.30;99.90
33994;DHT22;20673;48.980;8.138;2023-06-01T07:41:18;21.40;99.90
33994;DHT22;20673;48.980;8.138;2023-06-01T07:43:44;21.60;99.90
33994;DHT22;20673;48.980;8.138;2023-06-01T07:46:11;21.70;99.90
33994;DHT22;20673;48.980;8.138;2023-06-01T07:48:37;21.80;99.90
33994;DHT22;20673;48.980;8.138;2023-06-01T07:51:04;21.90;99.90
33994;DHT22;20673;48.980;8.138;2023-06-01T07:53:32;22.10;99.90
33994;DHT22;20673;48.980;8.138;2023-06-01T07:55:58;22.10;99.90
33994;DHT22;20673;48.980;8.138;2023-06-01T07:58:25;22.40;99.90
33994;DHT22;20673;48.980;8.138;2023-06-01T08:00:51;22.50;99.90
33994;DHT22;20673;48.980;8.138;2023-06-01T08:03:17;22.60;99.90
33994;DHT22;20673;48.980;8.138;2023-06-01T08:05:45;22.60;99.90
33994;DHT22;20673;48.980;8.138;2023-06-01T08:08:11;22.80;99.90
33994;DHT22;20673;48.980;8.138;2023-06-01T08:10:38;23.00;99.90
33994;DHT22;20673;48.980;8.138;2023-06-01T08:13:05;23.10;99.90
33994;DHT22;20673;48.980;8.138;2023-06-01T08:15:33;23.30;99.90
33994;DHT22;20673;48.980;8.138;2023-06-01T08:18:01;23.30;99.90
33994;DHT22;20673;48.980;8.138;2023-06-01T08:20:27;23.40;99.90
33994;DHT22;20673;48.980;8.138;2023-06-01T08:22:53;23.60;99.90
33994;DHT22;20673;48.980;8.138;2023-06-01T08:25:19;23.80;99.90
33994;DHT22;20673;48.980;8.138;2023-06-01T08:27:46;23.90;99.90
33994;DHT22;20673;48.980;8.138;2023-06-01T08:30:13;23.90;99.90
33994;DHT22;20673;48.980;8.138;2023-06-01T08:32:39;23.70;99.90
33994;DHT22;20673;48.980;8.138;2023-06-01T08:35:06;23.90;99.90
33994;DHT22;20673;48.980;8.138;2023-06-01T08:37:34;24.10;99.90
33994;DHT22;20673;48.980;8.138;2023-06-01T08:40:00;24.30;99.90
33994;DHT22;20673;48.980;8.138;2023-06-01T08:42:42;24.40;99.90
33994;DHT22;20673;48.980;8.138;2023-06-01T08:45:12;24.50;99.90
33994;DHT22;20673;48.980;8.138;2023-06-01T08:47:41;24.90;99.90
33994;DHT22;20673;48.980;8.138;2023-06-01T08:50:10;25.00;99.90
33994;DHT22;20673;48.980;8.138;2023-06-01T08:52:38;25.10;99.90
33994;DHT22;20673;48.980;8.138;2023-06-01T08:55:06;25.20;99.90
33994;DHT22;20673;48.980;8.138;2023-06-01T08:57:33;25.50;99.90
33994;DHT22;20673;48.980;8.138;2023-06-01T08:59:59;25.40;99.90
33994;DHT22;20673;48.980;8.138;2023-06-01T09:02:26;25.60;99.90
33994;DHT22;20673;48.980;8.138;2023-06-01T09:04:53;25.60;99.90
33994;DHT22;20673;48.980;8.138;2023-06-01T09:07:19;25.80;99.90
33994;DHT22;20673;48.980;8.138;2023-06-01T09:09:46;26.00;99.90
33994;DHT22;20673;48.980;8.138;2023-06-01T09:12:24;26.30;99.90
33994;DHT22;20673;48.980;8.138;2023-06-01T09:15:12;26.20;99.90
33994;DHT22;20673;48.980;8.138;2023-06-01T09:17:42;26.60;99.90
33994;DHT22;20673;48.980;8.138;2023-06-01T09:20:14;26.60;99.90
33994;DHT22;20673;48.980;8.138;2023-06-01T09:22:44;26.90;99.90
33994;DHT22;20673;48.980;8.138;2023-06-01T09:25:12;27.00;99.90
33994;DHT22;20673;48.980;8.138;2023-06-01T09:27:47;27.20;99.90
33994;DHT22;20673;48.980;8.138;2023-06-01T09:30:16;27.20;99.90
33994;DHT22;20673;48.980;8.138;2023-06-01T09:32:43;27.20;99.90
33994;DHT22;20673;48.980;8.138;2023-06-01T09:35:11;27.10;99.90
33994;DHT22;20673;48.980;8.138;2023-06-01T09:37:37;27.20;99.90
33994;DHT22;20673;48.980;8.138;2023-06-01T09:40:19;27.20;99.90
33994;DHT22;20673;48.980;8.138;2023-06-01T09:42:45;27.30;99.90
33994;DHT22;20673;48.980;8.138;2023-06-01T09:45:21;27.60;99.90
33994;DHT22;20673;48.980;8.138;2023-06-01T09:47:48;27.80;99.90
33994;DHT22;20673;48.980;8.138;2023-06-01T09:50:35;27.90;99.90
33994;DHT22;20673;48.980;8.138;2023-06-01T09:53:04;28.10;99.90
33994;DHT22;20673;48.980;8.138;2023-06-01T09:55:31;28.10;99.90
33994;DHT22;20673;48.980;8.138;2023-06-01T09:58:19;28.10;99.90
33994;DHT22;20673;48.980;8.138;2023-06-01T10:00:48;28.10;99.30
33994;DHT22;20673;48.980;8.138;2023-06-01T10:03:18;28.20;99.90
33994;DHT22;20673;48.980;8.138;2023-06-01T10:05:46;28.40;98.90
33994;DHT22;20673;48.980;8.138;2023-06-01T10:08:15;28.50;99.10
33994;DHT22;20673;48.980;8.138;2023-06-01T10:10:47;28.90;98.80
33994;DHT22;20673;48.980;8.138;2023-06-01T10:13:14;29.00;99.00
33994;DHT22;20673;48.980;8.138;2023-06-01T10:15:41;29.30;98.40
33994;DHT22;20673;48.980;8.138;2023-06-01T10:18:07;29.20;97.60
33994;DHT22;20673;48.980;8.138;2023-06-01T10:20:36;29.20;94.60
33994;DHT22;20673;48.980;8.138;2023-06-01T10:23:04;29.50;97.80
33994;DHT22;20673;48.980;8.138;2023-06-01T10:25:37;29.60;95.40
33994;DHT22;20673;48.980;8.138;2023-06-01T10:28:10;29.40;97.30
33994;DHT22;20673;48.980;8.138;2023-06-01T10:30:38;29.60;94.10
33994;DHT22;20673;48.980;8.138;2023-06-01T10:33:05;29.60;96.20
33994;DHT22;20673;48.980;8.138;2023-06-01T10:40:49;30.00;90.70
33994;DHT22;20673;48.980;8.138;2023-06-01T10:46:36;30.40;91.60
33994;DHT22;20673;48.980;8.138;2023-06-01T10:49:04;30.40;87.00
33994;DHT22;20673;48.980;8.138;2023-06-01T10:51:31;30.70;80.60
33994;DHT22;20673;48.980;8.138;2023-06-01T10:54:26;30.90;75.10
33994;DHT22;20673;48.980;8.138;2023-06-01T10:57:22;31.10;71.90
33994;DHT22;20673;48.980;8.138;2023-06-01T11:05:51;31.30;72.90
33994;DHT22;20673;48.980;8.138;2023-06-01T11:10:57;31.50;59.10
33994;DHT22;20673;48.980;8.138;2023-06-01T11:13:27;31.40;50.00
33994;DHT22;20673;48.980;8.138;2023-06-01T11:21:20;31.00;52.30
33994;DHT22;20673;48.980;8.138;2023-06-01T11:23:48;31.10;53.10
33994;DHT22;20673;48.980;8.138;2023-06-01T11:26:17;31.30;50.70
33994;DHT22;20673;48.980;8.138;2023-06-01T11:28:45;30.90;51.70
33994;DHT22;20673;48.980;8.138;2023-06-01T11:31:17;31.00;51.60
33994;DHT22;20673;48.980;8.138;2023-06-01T11:33:50;30.90;50.30
33994;DHT22;20673;48.980;8.138;2023-06-01T11:36:22;30.70;49.50
33994;DHT22;20673;48.980;8.138;2023-06-01T11:38:51;31.00;47.10
33994;DHT22;20673;48.980;8.138;2023-06-01T11:41:22;30.90;51.90
33994;DHT22;20673;48.980;8.138;2023-06-01T11:43:55;31.10;51.30
33994;DHT22;20673;48.980;8.138;2023-06-01T11:46:23;31.30;54.70
33994;DHT22;20673;48.980;8.138;2023-06-01T11:49:03;31.30;50.00
33994;DHT22;20673;48.980;8.138;2023-06-01T11:51:31;31.60;49.30
33994;DHT22;20673;48.980;8.138;2023-06-01T11:54:03;31.50;47.40
33994;DHT22;20673;48.980;8.138;2023-06-01T11:56:31;31.70;47.00
33994;DHT22;20673;48.980;8.138;2023-06-01T11:59:01;31.80;49.50
33994;DHT22;20673;48.980;8.138;2023-06-01T12:01:30;31.80;43.80
33994;DHT22;20673;48.980;8.138;2023-06-01T12:03:57;32.30;44.30
33994;DHT22;20673;48.980;8.138;2023-06-01T12:06:24;32.60;44.10
33994;DHT22;20673;48.980;8.138;2023-06-01T12:08:53;32.60;44.60
33994;DHT22;20673;48.980;8.138;2023-06-01T12:11:23;32.30;44.10
33994;DHT22;20673;48.980;8.138;2023-06-01T12:13:56;32.20;50.00
33994;DHT22;20673;48.980;8.138;2023-06-01T12:16:24;32.40;47.10
33994;DHT22;20673;48.980;8.138;2023-06-01T12:18:53;31.90;48.70
33994;DHT22;20673;48.980;8.138;2023-06-01T12:21:20;32.10;46.20
33994;DHT22;20673;48.980;8.138;2023-06-01T12:23:50;31.80;45.40
33994;DHT22;20673;48.980;8.138;2023-06-01T12:26:19;31.80;43.90
33994;DHT22;20673;48.980;8.138;2023-06-01T12:28:51;32.00;43.30
33994;DHT22;20673;48.980;8.138;2023-06-01T12:31:21;32.20;43.20
33994;DHT22;20673;48.980;8.138;2023-06-01T12:33:48;32.20;42.70
33994;DHT22;20673;48.980;8.138;2023-06-01T12:36:33;32.60;39.00
33994;DHT22;20673;48.980;8.138;2023-06-01T12:39:01;32.60;39.80
33994;DHT22;20673;48.980;8.138;2023-06-01T12:41:30;32.10;42.70
33994;DHT22;20673;48.980;8.138;2023-06-01T12:43:57;32.10;47.50
33994;DHT22;20673;48.980;8.138;2023-06-01T12:46:28;32.40;47.50
33994;DHT22;20673;48.980;8.138;2023-06-01T12:49:15;32.70;42.80
33994;DHT22;20673;48.980;8.138;2023-06-01T12:51:46;32.90;41.20
33994;DHT22;20673;48.980;8.138;2023-06-01T12:54:12;32.60;41.40
33994;DHT22;20673;48.980;8.138;2023-06-01T12:56:39;32.60;41.80
33994;DHT22;20673;48.980;8.138;2023-06-01T12:59:05;32.00;41.30
33994;DHT22;20673;48.980;8.138;2023-06-01T13:01:32;32.40;41.30
33994;DHT22;20673;48.980;8.138;2023-06-01T13:03:58;32.70;44.20
33994;DHT22;20673;48.980;8.138;2023-06-01T13:06:25;32.90;45.60
33994;DHT22;20673;48.980;8.138;2023-06-01T13:08:52;32.90;38.20
33994;DHT22;20673;48.980;8.138;2023-06-01T13:11:19;32.70;41.40
33994;DHT22;20673;48.980;8.138;2023-06-01T13:13:45;32.30;42.30
33994;DHT22;20673;48.980;8.138;2023-06-01T13:16:11;32.90;43.00
33994;DHT22;20673;48.980;8.138;2023-06-01T13:18:39;33.50;38.60
33994;DHT22;20673;48.980;8.138;2023-06-01T13:21:06;33.10;37.70
33994;DHT22;20673;48.980;8.138;2023-06-01T13:23:33;33.10;39.40
33994;DHT22;20673;48.980;8.138;2023-06-01T13:25:59;33.30;38.60
33994;DHT22;20673;48.980;8.138;2023-06-01T13:28:25;33.30;39.40
33994;DHT22;20673;48.980;8.138;2023-06-01T13:30:52;33.80;37.00
33994;DHT22;20673;48.980;8.138;2023-06-01T13:33:20;33.50;36.10
33994;DHT22;20673;48.980;8.138;2023-06-01T13:35:46;33.10;34.10
33994;DHT22;20673;48.980;8.138;2023-06-01T13:38:14;32.90;35.50
33994;DHT22;20673;48.980;8.138;2023-06-01T13:40:40;33.10;38.00
33994;DHT22;20673;48.980;8.138;2023-06-01T13:43:06;33.50;37.70
33994;DHT22;20673;48.980;8.138;2023-06-01T13:45:32;33.40;31.00
33994;DHT22;20673;48.980;8.138;2023-06-01T13:47:59;32.90;31.80
33994;DHT22;20673;48.980;8.138;2023-06-01T13:50:25;32.70;37.70
33994;DHT22;20673;48.980;8.138;2023-06-01T13:52:52;32.40;40.10
33994;DHT22;20673;48.980;8.138;2023-06-01T13:55:21;32.80;40.50
33994;DHT22;20673;48.980;8.138;2023-06-01T13:57:47;32.90;40.00
33994;DHT22;20673;48.980;8.138;2023-06-01T14:00:14;32.60;42.00
33994;DHT22;20673;48.980;8.138;2023-06-01T14:02:41;33.20;38.50
33994;DHT22;20673;48.980;8.138;2023-06-01T14:05:07;33.20;34.00
33994;DHT22;20673;48.980;8.138;2023-06-01T14:07:36;33.20;37.40
33994;DHT22;20673;48.980;8.138;2023-06-01T14:10:02;33.60;37.00
33994;DHT22;20673;48.980;8.138;2023-06-01T14:12:29;34.00;32.50
33994;DHT22;20673;48.980;8.138;2023-06-01T14:14:55;33.80;32.70
33994;DHT22;20673;48.980;8.138;2023-06-01T14:17:21;33.80;35.90
33994;DHT22;20673;48.980;8.138;2023-06-01T14:19:49;33.70;33.40
33994;DHT22;20673;48.980;8.138;2023-06-01T14:22:17;33.70;29.50
33994;DHT22;20673;48.980;8.138;2023-06-01T14:24:44;33.70;33.70
33994;DHT22;20673;48.980;8.138;2023-06-01T14:27:10;33.20;36.60
33994;DHT22;20673;48.980;8.138;2023-06-01T14:29:36;33.20;36.00
33994;DHT22;20673;48.980;8.138;2023-06-01T14:32:03;33.10;33.80
33994;DHT22;20673;48.980;8.138;2023-06-01T14:34:30;33.50;34.20
33994;DHT22;20673;48.980;8.138;2023-06-01T14:36:56;33.50;37.00
33994;DHT22;20673;48.980;8.138;2023-06-01T14:39:23;33.70;36.00
33994;DHT22;20673;48.980;8.138;2023-06-01T14:41:50;33.60;36.50
33994;DHT22;20673;48.980;8.138;2023-06-01T14:44:16;33.80;35.60
33994;DHT22;20673;48.980;8.138;2023-06-01T14:46:43;34.50;38.10
33994;DHT22;20673;48.980;8.138;2023-06-01T14:49:09;34.00;34.30
33994;DHT22;20673;48.980;8.138;2023-06-01T14:51:35;33.70;32.30
33994;DHT22;20673;48.980;8.138;2023-06-01T14:54:02;32.90;32.90
33994;DHT22;20673;48.980;8.138;2023-06-01T14:56:28;32.80;34.00
33994;DHT22;20673;48.980;8.138;2023-06-01T14:58:55;33.00;32.00
33994;DHT22;20673;48.980;8.138;2023-06-01T15:01:21;33.20;32.70
33994;DHT22;20673;48.980;8.138;2023-06-01T15:03:49;33.30;33.10
33994;DHT22;20673;48.980;8.138;2023-06-01T15:06:15;33.40;33.00
33994;DHT22;20673;48.980;8.138;2023-06-01T15:08:42;33.20;29.90
33994;DHT22;20673;48.980;8.138;2023-06-01T15:11:08;33.50;27.30
33994;DHT22;20673;48.980;8.138;2023-06-01T15:13:34;33.90;25.80
33994;DHT22;20673;48.980;8.138;2023-06-01T15:16:00;33.80;25.80
33994;DHT22;20673;48.980;8.138;2023-06-01T15:18:26;33.80;30.00
33994;DHT22;20673;48.980;8.138;2023-06-01T15:20:52;33.30;28.90
33994;DHT22;20673;48.980;8.138;2023-06-01T15:23:19;33.30;31.00
33994;DHT22;20673;48.980;8.138;2023-06-01T15:25:45;33.60;30.50
33994;DHT22;20673;48.980;8.138;2023-06-01T15:28:12;34.20;26.40
33994;DHT22;20673;48.980;8.138;2023-06-01T15:30:39;34.00;28.80
33994;DHT22;20673;48.980;8.138;2023-06-01T15:33:05;33.60;29.40
33994;DHT22;20673;48.980;8.138;2023-06-01T15:35:31;33.40;30.10
33994;DHT22;20673;48.980;8.138;2023-06-01T15:37:57;32.80;29.40
33994;DHT22;20673;48.980;8.138;2023-06-01T15:40:23;32.50;29.60
33994;DHT22;20673;48.980;8.138;2023-06-01T15:42:49;32.80;30.20
33994;DHT22;20673;48.980;8.138;2023-06-01T15:45:15;33.20;33.20
33994;DHT22;20673;48.980;8.138;2023-06-01T15:47:42;33.10;29.30
33994;DHT22;20673;48.980;8.138;2023-06-01T15:50:08;32.70;32.40
33994;DHT22;20673;48.980;8.138;2023-06-01T15:52:35;33.30;28.60
33994;DHT22;20673;48.980;8.138;2023-06-01T15:55:01;33.30;29.60
33994;DHT22;20673;48.980;8.138;2023-06-01T15:57:28;33.10;29.00
33994;DHT22;20673;48.980;8.138;2023-06-01T15:59:54;32.80;29.10
33994;DHT22;20673;48.980;8.138;2023-06-01T16:02:21;33.00;27.40
33994;DHT22;20673;48.980;8.138;2023-06-01T16:04:47;32.90;29.00
33994;DHT22;20673;48.980;8.138;2023-06-01T16:07:13;32.90;27.70
33994;DHT22;20673;48.980;8.138;2023-06-01T16:09:39;33.20;26.90